createdAt,value
2022-09-06T00:02:22.478Z,18.85
2022-09-06T00:04:50.855Z,18.83
2022-09-06T00:07:18.895Z,19.15
2022-09-06T00:09:47.737Z,18.87
2022-09-06T00:12:17.200Z,18.74
2022-09-06T00:14:45.490Z,18.62
2022-09-06T00:17:13.608Z,18.62
2022-09-06T00:19:41.872Z,18.53
2022-09-06T00:22:10.069Z,18.46
2022-09-06T00:24:38.176Z,18.44
2022-09-06T00:27:06.935Z,18.46
2022-09-06T00:29:36.953Z,18.33
2022-09-06T00:32:05.438Z,18.26
2022-09-06T00:34:33.679Z,18.28
2022-09-06T00:37:01.853Z,18.64
2022-09-06T00:39:30.027Z,18.46
2022-09-06T00:41:58.197Z,18.28
2022-09-06T00:44:26.322Z,18.50
2022-09-06T00:46:56.476Z,18.34
2022-09-06T00:49:27.547Z,18.21
2022-09-06T00:52:00.358Z,18.21
2022-09-06T00:54:29.184Z,18.25
2022-09-06T00:56:59.676Z,18.24
2022-09-06T00:59:30.918Z,18.25
2022-09-06T01:02:00.785Z,18.16
2022-09-06T01:04:30.058Z,18.12
2022-09-06T01:07:06.737Z,18.08
2022-09-06T01:09:55.951Z,18.13
2022-09-06T01:12:38.869Z,18.23
2022-09-06T01:15:21.952Z,18.20
2022-09-06T01:18:01.964Z,17.90
2022-09-06T01:20:43.935Z,18.09
2022-09-06T01:23:53.736Z,18.07
2022-09-06T01:26:54.955Z,17.89
2022-09-06T01:29:33.888Z,18.03
2022-09-06T01:32:10.273Z,17.95
2022-09-06T01:34:43.970Z,17.97
2022-09-06T01:37:15.620Z,17.93
2022-09-06T01:39:43.919Z,18.07
2022-09-06T01:42:16.853Z,18.06
2022-09-06T01:44:51.284Z,18.06
2022-09-06T01:47:27.435Z,18.01
2022-09-06T01:50:12.140Z,17.98
2022-09-06T01:52:50.804Z,17.93
2022-09-06T01:55:29.890Z,17.99
2022-09-06T01:58:15.365Z,18.01
2022-09-06T02:00:52.893Z,17.99
2022-09-06T02:03:27.786Z,18.04
2022-09-06T02:05:58.932Z,18.10
2022-09-06T02:08:31.984Z,18.13
2022-09-06T02:11:02.979Z,18.23
2022-09-06T02:13:36.401Z,18.24
2022-09-06T02:16:07.554Z,18.20
2022-09-06T02:18:41.454Z,18.11
2022-09-06T02:21:11.943Z,18.15
2022-09-06T02:23:44.230Z,18.06
2022-09-06T02:26:15.165Z,17.95
2022-09-06T02:28:43.240Z,18.02
2022-09-06T02:31:19.049Z,18.02
2022-09-06T02:33:48.500Z,18.00
2022-09-06T02:36:17.120Z,17.90
2022-09-06T02:38:46.813Z,17.82
2022-09-06T02:41:18.470Z,17.90
2022-09-06T02:43:46.802Z,17.89
2022-09-06T02:46:16.866Z,17.87
2022-09-06T02:48:45.041Z,17.91
2022-09-06T02:51:13.233Z,17.84
2022-09-06T02:53:41.912Z,17.80
2022-09-06T02:56:10.200Z,17.79
2022-09-06T02:58:38.378Z,17.70
2022-09-06T03:01:06.880Z,17.62
2022-09-06T03:03:36.527Z,17.57
2022-09-06T03:06:04.647Z,17.48
2022-09-06T03:08:34.235Z,17.62
2022-09-06T03:11:02.854Z,17.65
2022-09-06T03:13:31.191Z,17.50
2022-09-06T03:16:00.866Z,17.53
2022-09-06T03:18:30.969Z,17.39
2022-09-06T03:21:00.804Z,17.42
2022-09-06T03:23:30.036Z,17.41
2022-09-06T03:25:58.366Z,17.57
2022-09-06T03:28:26.673Z,17.39
2022-09-06T03:30:55.013Z,17.46
2022-09-06T03:33:23.722Z,17.40
2022-09-06T03:35:53.675Z,17.27
2022-09-06T03:38:23.698Z,17.52
2022-09-06T03:40:52.913Z,17.54
2022-09-06T03:43:23.066Z,17.12
2022-09-06T03:45:53.321Z,17.10
2022-09-06T03:48:23.720Z,17.04
2022-09-06T03:50:55.052Z,16.88
2022-09-06T03:53:25.553Z,17.01
2022-09-06T03:55:55.493Z,16.99
2022-09-06T03:58:26.206Z,17.00
2022-09-06T04:01:02.080Z,16.94
2022-09-06T04:03:30.203Z,17.13
2022-09-06T04:05:58.276Z,17.15
2022-09-06T04:08:28.143Z,17.05
2022-09-06T04:10:57.151Z,16.99
2022-09-06T04:13:26.208Z,17.11
2022-09-06T04:15:54.797Z,16.94
2022-09-06T04:18:23.135Z,16.93
2022-09-06T04:20:52.781Z,17.04
2022-09-06T04:23:22.395Z,17.26
2022-09-06T04:25:54.092Z,17.20
2022-09-06T04:28:23.216Z,17.14
2022-09-06T04:30:54.630Z,16.96
2022-09-06T04:33:25.849Z,17.05
2022-09-06T04:35:54.433Z,17.10
2022-09-06T04:38:22.523Z,17.15
2022-09-06T04:40:51.944Z,17.15
2022-09-06T04:43:20.165Z,17.17
2022-09-06T04:45:48.426Z,17.29
2022-09-06T04:48:16.946Z,17.25
2022-09-06T04:50:45.160Z,17.25
2022-09-06T04:53:13.638Z,17.34
2022-09-06T04:55:41.762Z,17.36
2022-09-06T04:58:11.568Z,17.53
2022-09-06T05:00:41.778Z,17.58
2022-09-06T05:03:10.132Z,17.87
2022-09-06T05:05:38.204Z,17.74
2022-09-06T05:08:06.245Z,17.68
2022-09-06T05:10:34.617Z,17.82
2022-09-06T05:13:02.751Z,17.72
2022-09-06T05:15:33.647Z,17.80
2022-09-06T05:18:06.726Z,17.95
2022-09-06T05:20:35.397Z,17.99
2022-09-06T05:23:03.462Z,17.78
2022-09-06T05:25:31.533Z,17.99
2022-09-06T05:27:59.594Z,18.08
2022-09-06T05:30:27.745Z,18.34
2022-09-06T05:32:57.174Z,18.35
2022-09-06T05:35:25.341Z,18.29
2022-09-06T05:37:53.418Z,18.25
2022-09-06T05:40:21.515Z,18.25
2022-09-06T05:42:49.717Z,18.26
2022-09-06T05:45:18.007Z,18.40
2022-09-06T05:47:46.222Z,18.58
2022-09-06T05:50:16.239Z,18.68
2022-09-06T05:52:44.588Z,18.96
2022-09-06T05:55:12.941Z,19.14
2022-09-06T05:57:41.586Z,19.32
2022-09-06T06:00:12.308Z,19.43
2022-09-06T06:02:40.952Z,19.83
2022-09-06T06:05:09.666Z,19.83
2022-09-06T06:07:39.153Z,19.91
2022-09-06T06:10:08.188Z,20.05
2022-09-06T06:12:36.388Z,20.04
2022-09-06T06:15:05.975Z,20.12
2022-09-06T06:17:34.193Z,19.96
2022-09-06T06:20:03.036Z,20.00
2022-09-06T06:22:31.313Z,19.77
2022-09-06T06:25:00.714Z,19.90
2022-09-06T06:27:28.980Z,20.47
2022-09-06T06:29:57.002Z,21.06
2022-09-06T06:32:25.677Z,21.55
2022-09-06T06:34:53.779Z,22.03
2022-09-06T06:37:21.908Z,21.91
2022-09-06T06:39:50.116Z,21.89
2022-09-06T06:42:19.728Z,21.86
2022-09-06T06:44:47.915Z,22.45
2022-09-06T06:47:16.063Z,22.70
2022-09-06T06:49:44.184Z,22.45
2022-09-06T06:52:12.341Z,22.57
2022-09-06T06:54:41.779Z,22.51
2022-09-06T06:57:10.258Z,22.21
2022-09-06T06:59:40.136Z,21.60
2022-09-06T07:02:08.564Z,21.60
2022-09-06T07:04:37.028Z,21.34
2022-09-06T07:12:41.949Z,21.13
2022-09-06T07:15:12.030Z,21.11
2022-09-06T07:17:40.094Z,21.25
2022-09-06T07:22:41.356Z,21.13
2022-09-06T07:25:12.180Z,21.21
2022-09-06T07:27:49.091Z,21.31
2022-09-06T07:30:20.276Z,21.50
2022-09-06T07:32:48.902Z,21.46
2022-09-06T07:35:17.557Z,21.49
2022-09-06T07:37:53.064Z,21.56
2022-09-06T07:40:21.427Z,21.64
2022-09-06T07:42:49.563Z,21.59
2022-09-06T07:45:19.081Z,21.42
2022-09-06T07:53:26.294Z,21.35
2022-09-06T07:55:58.790Z,21.44
2022-09-06T07:58:27.396Z,21.63
2022-09-06T08:01:15.447Z,21.79
2022-09-06T08:03:43.602Z,21.87
2022-09-06T08:06:11.981Z,22.01
2022-09-06T08:11:26.472Z,22.03
2022-09-06T08:13:56.050Z,22.24
2022-09-06T08:16:28.041Z,22.58
2022-09-06T08:18:58.388Z,22.85
2022-09-06T08:21:28.367Z,23.04
2022-09-06T08:23:59.289Z,23.27
2022-09-06T08:26:28.984Z,23.21
2022-09-06T08:28:59.177Z,23.01
2022-09-06T08:31:30.351Z,23.34
2022-09-06T08:34:00.286Z,23.32
2022-09-06T08:36:30.880Z,23.54
2022-09-06T08:39:00.158Z,23.58
2022-09-06T08:41:31.687Z,23.77
2022-09-06T08:46:58.682Z,23.70
2022-09-06T08:49:30.413Z,24.01
2022-09-06T08:52:10.580Z,24.03
2022-09-06T08:54:43.584Z,24.16
2022-09-06T08:57:16.184Z,24.12
2022-09-06T08:59:44.444Z,23.87
2022-09-06T09:02:17.162Z,24.18
2022-09-06T09:04:48.316Z,24.26
2022-09-06T09:07:39.983Z,24.27
2022-09-06T09:10:13.542Z,24.13
2022-09-06T09:12:46.966Z,24.26
2022-09-06T09:15:17.914Z,24.26
2022-09-06T09:17:50.333Z,24.35
2022-09-06T09:20:19.193Z,24.14
2022-09-06T09:22:47.776Z,24.14
2022-09-06T09:25:21.170Z,24.25
2022-09-06T09:27:57.488Z,24.41
2022-09-06T09:33:28.993Z,24.11
2022-09-06T09:35:59.638Z,24.20
2022-09-06T09:38:31.028Z,24.27
2022-09-06T09:41:02.070Z,24.23
2022-09-06T09:43:32.454Z,24.34
2022-09-06T09:46:16.235Z,24.34
2022-09-06T09:49:00.343Z,24.16
2022-09-06T09:51:28.900Z,24.04
2022-09-06T09:53:58.334Z,24.09
2022-09-06T09:56:35.407Z,24.09
2022-09-06T09:59:04.781Z,24.08
2022-09-06T10:01:34.178Z,24.24
2022-09-06T10:07:09.627Z,24.46
2022-09-06T10:09:40.746Z,24.40
2022-09-06T10:12:09.202Z,24.49
2022-09-06T10:14:44.214Z,24.55
2022-09-06T10:17:21.980Z,24.49
2022-09-06T10:19:51.590Z,24.71
2022-09-06T10:22:27.760Z,25.05
2022-09-06T10:25:24.425Z,24.81
2022-09-06T10:28:23.909Z,25.09
2022-09-06T10:31:05.516Z,25.20
2022-09-06T10:33:45.092Z,25.21
2022-09-06T10:36:21.006Z,25.15
2022-09-06T10:38:55.429Z,25.06
2022-09-06T10:41:35.548Z,25.14
2022-09-06T10:44:16.141Z,25.09
2022-09-06T10:46:46.420Z,25.04
2022-09-06T10:49:18.839Z,25.00
2022-09-06T10:51:53.357Z,25.20
2022-09-06T10:54:24.095Z,25.05
2022-09-06T10:56:57.331Z,25.20
2022-09-06T11:02:14.054Z,25.29
2022-09-06T11:07:38.223Z,25.24
2022-09-06T11:10:15.028Z,25.47
2022-09-06T11:12:50.129Z,25.42
2022-09-06T11:15:20.312Z,25.40
2022-09-06T11:17:55.671Z,25.60
2022-09-06T11:20:31.939Z,25.69
2022-09-06T11:23:31.192Z,25.86
2022-09-06T11:26:37.515Z,26.02
2022-09-06T11:29:09.460Z,26.11
2022-09-06T11:34:44.165Z,26.00
2022-09-06T11:37:26.634Z,26.17
2022-09-06T11:40:30.906Z,26.13
2022-09-06T11:43:44.459Z,26.04
2022-09-06T11:46:12.676Z,26.17
2022-09-06T11:49:00.727Z,26.28
2022-09-06T11:51:35.180Z,26.43
2022-09-06T11:54:24.005Z,26.63
2022-09-06T11:56:58.798Z,26.63
2022-09-06T11:59:37.229Z,26.61
2022-09-06T12:02:06.901Z,26.53
2022-09-06T12:05:14.300Z,26.74
2022-09-06T12:08:25.872Z,26.90
2022-09-06T12:10:59.448Z,27.10
2022-09-06T12:13:48.813Z,27.18
2022-09-06T12:16:18.836Z,27.08
2022-09-06T12:19:03.255Z,26.82
2022-09-06T12:21:46.053Z,26.76
2022-09-06T12:24:50.678Z,26.76
2022-09-06T12:27:19.906Z,26.60
2022-09-06T12:29:58.490Z,26.52
2022-09-06T12:32:31.708Z,26.20
2022-09-06T12:37:57.221Z,26.22
2022-09-06T12:40:27.645Z,26.33
2022-09-06T12:42:55.867Z,26.63
2022-09-06T12:45:27.689Z,26.79
2022-09-06T12:48:08.097Z,26.86
2022-09-06T12:50:36.731Z,26.97
2022-09-06T12:53:23.322Z,27.09
2022-09-06T12:56:03.929Z,27.07
2022-09-06T12:58:32.265Z,27.28
2022-09-06T13:01:10.387Z,27.08
2022-09-06T13:03:45.191Z,26.93
2022-09-06T13:06:23.225Z,27.02
2022-09-06T13:08:59.880Z,26.86
2022-09-06T13:11:34.274Z,26.99
2022-09-06T13:14:14.038Z,26.97
2022-09-06T13:16:48.482Z,27.06
2022-09-06T13:19:19.042Z,27.11
2022-09-06T13:21:49.538Z,27.18
2022-09-06T13:24:22.523Z,27.23
2022-09-06T13:26:51.356Z,27.27
2022-09-06T13:29:30.596Z,27.26
2022-09-06T13:32:02.409Z,27.16
2022-09-06T13:34:32.785Z,27.12
2022-09-06T13:37:03.458Z,26.95
2022-09-06T13:39:34.064Z,26.86
2022-09-06T13:42:07.480Z,26.82
2022-09-06T13:44:37.088Z,26.71
2022-09-06T13:47:07.377Z,26.74
2022-09-06T13:49:35.776Z,26.80
2022-09-06T13:52:05.748Z,26.93
2022-09-06T13:54:34.139Z,27.04
2022-09-06T13:57:02.883Z,27.10
2022-09-06T13:59:31.683Z,27.00
2022-09-06T14:02:03.018Z,26.89
2022-09-06T14:04:32.979Z,26.87
2022-09-06T14:07:01.140Z,26.84
2022-09-06T14:09:30.197Z,26.78
2022-09-06T14:11:58.473Z,26.88
2022-09-06T14:14:26.631Z,26.74
2022-09-06T14:16:57.076Z,26.68
2022-09-06T14:19:25.763Z,26.76
2022-09-06T14:21:55.218Z,26.73
2022-09-06T14:24:23.525Z,26.75
2022-09-06T14:26:52.034Z,26.64
2022-09-06T14:29:20.107Z,26.57
2022-09-06T14:31:48.477Z,26.51
2022-09-06T14:34:16.675Z,26.50
2022-09-06T14:36:44.743Z,26.47
2022-09-06T14:39:14.297Z,26.43
2022-09-06T14:41:42.448Z,26.41
2022-09-06T14:44:10.825Z,26.35
2022-09-06T14:46:39.261Z,26.29
2022-09-06T14:49:10.143Z,26.34
2022-09-06T14:51:39.791Z,26.35
2022-09-06T14:54:10.259Z,26.24
2022-09-06T14:56:41.282Z,26.18
2022-09-06T14:59:09.671Z,26.13
2022-09-06T15:01:39.045Z,26.08
2022-09-06T15:04:09.266Z,26.20
2022-09-06T15:06:40.312Z,26.12
2022-09-06T15:09:11.414Z,26.13
2022-09-06T15:11:42.977Z,26.04
2022-09-06T15:14:15.944Z,25.95
2022-09-06T15:16:44.547Z,26.08
2022-09-06T15:19:13.006Z,26.01
2022-09-06T15:21:42.020Z,25.97
2022-09-06T15:24:12.131Z,25.86
2022-09-06T15:26:42.958Z,25.83
2022-09-06T15:29:12.397Z,25.74
2022-09-06T15:31:41.937Z,25.71
2022-09-06T15:34:11.247Z,25.67
2022-09-06T15:36:39.478Z,25.60
2022-09-06T15:39:07.647Z,25.49
2022-09-06T15:41:39.690Z,25.18
2022-09-06T15:44:11.906Z,24.59
2022-09-06T15:46:49.190Z,24.39
2022-09-06T15:49:19.508Z,24.20
2022-09-06T15:51:48.034Z,24.17
2022-09-06T15:54:18.146Z,24.05
2022-09-06T15:56:45.669Z,24.02
2022-09-06T15:59:15.281Z,23.98
2022-09-06T16:01:43.402Z,24.05
2022-09-06T16:04:11.567Z,24.13
2022-09-06T16:06:42.747Z,24.10
2022-09-06T16:09:14.173Z,24.16
2022-09-06T16:11:43.022Z,24.12
2022-09-06T16:14:13.967Z,24.07
2022-09-06T16:16:44.211Z,23.96
2022-09-06T16:19:13.562Z,23.77
2022-09-06T16:21:43.745Z,23.62
2022-09-06T16:24:14.809Z,23.55
2022-09-06T16:26:44.486Z,23.46
2022-09-06T16:29:14.548Z,23.41
2022-09-06T16:31:44.390Z,23.19
2022-09-06T16:34:14.019Z,23.30
2022-09-06T16:36:43.168Z,23.23
2022-09-06T16:39:11.773Z,23.12
2022-09-06T16:41:41.911Z,23.12
2022-09-06T16:44:14.484Z,23.00
2022-09-06T16:46:44.607Z,22.91
2022-09-06T16:49:13.137Z,23.06
2022-09-06T16:51:41.277Z,22.92
2022-09-06T16:54:09.597Z,22.66
2022-09-06T16:56:38.370Z,22.66
2022-09-06T16:59:09.342Z,22.81
2022-09-06T17:01:41.529Z,22.65
2022-09-06T17:04:15.720Z,22.60
2022-09-06T17:06:45.824Z,22.43
2022-09-06T17:09:15.192Z,22.42
2022-09-06T17:11:43.320Z,22.38
2022-09-06T17:14:11.718Z,22.43
2022-09-06T17:16:57.886Z,22.33
2022-09-06T17:19:27.898Z,22.20
2022-09-06T17:21:56.109Z,22.29
2022-09-06T17:24:24.943Z,22.36
2022-09-06T17:26:53.577Z,22.27
2022-09-06T17:29:21.908Z,22.19
2022-09-06T17:31:50.078Z,22.26
2022-09-06T17:34:20.518Z,22.43
2022-09-06T17:36:49.983Z,22.37
2022-09-06T17:39:21.008Z,22.18
2022-09-06T17:41:50.726Z,22.37
2022-09-06T17:44:20.323Z,22.13
2022-09-06T17:47:11.552Z,22.24
2022-09-06T17:49:37.884Z,22.17
2022-09-06T17:52:07.380Z,22.15
2022-09-06T17:54:35.666Z,22.18
2022-09-06T17:57:04.160Z,22.19
2022-09-06T17:59:35.497Z,22.22
2022-09-06T18:02:05.244Z,22.31
2022-09-06T18:04:34.874Z,22.37
2022-09-06T18:07:03.488Z,22.29
2022-09-06T18:09:33.472Z,22.39
2022-09-06T18:12:02.039Z,22.39
2022-09-06T18:14:31.233Z,22.36
2022-09-06T18:17:00.073Z,22.25
2022-09-06T18:19:28.663Z,22.11
2022-09-06T18:21:57.428Z,22.05
2022-09-06T18:24:26.171Z,22.04
2022-09-06T18:26:55.952Z,21.89
2022-09-06T18:29:24.635Z,21.89
2022-09-06T18:31:54.262Z,21.84
2022-09-06T18:34:22.839Z,21.68
2022-09-06T18:36:51.157Z,21.61
2022-09-06T18:39:20.521Z,21.58
2022-09-06T18:42:07.131Z,21.53
2022-09-06T18:44:37.578Z,21.50
2022-09-06T18:47:08.665Z,21.49
2022-09-06T18:49:41.814Z,21.39
2022-09-06T18:52:12.268Z,21.34
2022-09-06T18:54:40.628Z,21.27
2022-09-06T18:57:09.361Z,21.37
2022-09-06T18:59:39.074Z,21.26
2022-09-06T19:02:07.615Z,21.28
2022-09-06T19:04:35.835Z,21.11
2022-09-06T19:07:04.650Z,21.06
2022-09-06T19:09:32.902Z,21.00
2022-09-06T19:12:01.654Z,21.02
2022-09-06T19:14:29.917Z,21.09
2022-09-06T19:16:59.400Z,21.18
2022-09-06T19:19:27.693Z,21.10
2022-09-06T19:21:55.895Z,21.05
2022-09-06T19:24:24.676Z,20.93
2022-09-06T19:26:55.239Z,20.91
2022-09-06T19:29:23.521Z,20.90
2022-09-06T19:31:53.206Z,20.76
2022-09-06T19:34:23.323Z,20.60
2022-09-06T19:36:55.189Z,20.60
2022-09-06T19:39:23.723Z,20.64
2022-09-06T19:41:51.910Z,20.49
2022-09-06T19:44:20.736Z,20.56
2022-09-06T19:46:49.858Z,20.38
2022-09-06T19:49:20.255Z,20.44
2022-09-06T19:51:50.921Z,20.49
2022-09-06T19:54:19.652Z,20.36
2022-09-06T19:56:50.129Z,20.32
2022-09-06T19:59:18.745Z,20.34
2022-09-06T20:01:47.933Z,20.35
2022-09-06T20:04:17.093Z,20.30
2022-09-06T20:06:46.050Z,20.25
2022-09-06T20:09:16.558Z,20.22
2022-09-06T20:11:45.058Z,20.18
2022-09-06T20:14:13.714Z,20.20
2022-09-06T20:16:42.775Z,20.20
2022-09-06T20:19:13.018Z,20.17
2022-09-06T20:21:41.812Z,20.27
2022-09-06T20:24:10.213Z,20.23
2022-09-06T20:26:40.403Z,20.23
2022-09-06T20:29:09.111Z,20.16
2022-09-06T20:31:38.423Z,20.13
2022-09-06T20:34:11.130Z,20.04
2022-09-06T20:36:39.555Z,19.87
2022-09-06T20:39:08.043Z,20.05
2022-09-06T20:41:36.305Z,19.74
2022-09-06T20:44:05.823Z,19.81
2022-09-06T20:46:36.064Z,19.67
2022-09-06T20:49:05.111Z,19.73
2022-09-06T20:51:34.451Z,19.64
2022-09-06T20:54:05.857Z,19.75
2022-09-06T20:56:35.686Z,19.73
2022-09-06T20:59:08.578Z,19.61
2022-09-06T21:01:40.228Z,19.60
2022-09-06T21:04:10.095Z,19.64
2022-09-06T21:06:40.071Z,19.54
2022-09-06T21:09:10.626Z,19.47
2022-09-06T21:11:39.373Z,19.52
2022-09-06T21:14:09.436Z,19.50
2022-09-06T21:16:38.759Z,19.54
2022-09-06T21:19:09.257Z,19.54
2022-09-06T21:21:38.523Z,19.59
2022-09-06T21:24:08.589Z,19.63
2022-09-06T21:26:36.931Z,19.59
2022-09-06T21:29:05.331Z,19.58
2022-09-06T21:31:37.017Z,19.47
2022-09-06T21:34:09.790Z,19.44
2022-09-06T21:36:41.696Z,19.60
2022-09-06T21:39:12.309Z,19.51
2022-09-06T21:41:42.415Z,19.49
2022-09-06T21:44:10.618Z,19.56
2022-09-06T21:46:41.221Z,19.55
2022-09-06T21:49:11.842Z,19.47
2022-09-06T21:51:40.876Z,19.50
2022-09-06T21:54:08.977Z,19.41
2022-09-06T21:56:38.918Z,19.37
2022-09-06T21:59:08.781Z,19.49
2022-09-06T22:01:40.355Z,19.41
2022-09-06T22:04:09.437Z,19.29
2022-09-06T22:06:37.822Z,19.28
2022-09-06T22:09:11.599Z,19.02
2022-09-06T22:11:41.250Z,19.16
2022-09-06T22:14:12.232Z,18.95
2022-09-06T22:16:42.688Z,18.97
2022-09-06T22:19:11.958Z,19.09
2022-09-06T22:21:41.009Z,19.23
2022-09-06T22:24:11.553Z,19.06
2022-09-06T22:26:41.024Z,19.22
2022-09-06T22:29:11.344Z,19.22
2022-09-06T22:31:41.496Z,19.10
2022-09-06T22:34:10.425Z,18.86
2022-09-06T22:36:38.850Z,18.92
2022-09-06T22:39:06.962Z,19.00
2022-09-06T22:41:35.238Z,19.01
2022-09-06T22:44:04.903Z,18.94
2022-09-06T22:46:33.618Z,18.90
2022-09-06T22:49:04.132Z,18.91
2022-09-06T22:51:32.276Z,18.97
2022-09-06T22:54:00.471Z,19.01
2022-09-06T22:56:28.688Z,19.21
2022-09-06T22:58:56.820Z,19.28
2022-09-06T23:01:24.936Z,19.20
2022-09-06T23:03:53.223Z,19.15
2022-09-06T23:06:23.319Z,19.01
2022-09-06T23:08:51.464Z,18.98
2022-09-06T23:11:20.357Z,18.94
2022-09-06T23:13:48.709Z,19.02
2022-09-06T23:16:19.128Z,18.90
2022-09-06T23:18:48.339Z,18.77
2022-09-06T23:21:19.140Z,18.73
2022-09-06T23:23:49.836Z,18.79
2022-09-06T23:26:19.661Z,18.90
2022-09-06T23:28:51.250Z,18.97
2022-09-06T23:31:19.970Z,18.86
2022-09-06T23:33:48.122Z,18.52
2022-09-06T23:36:16.199Z,18.53
2022-09-06T23:38:44.845Z,18.67
2022-09-06T23:41:14.593Z,18.47
2022-09-06T23:43:43.952Z,18.58
2022-09-06T23:46:14.596Z,18.54
2022-09-06T23:48:43.356Z,18.54
2022-09-06T23:51:12.986Z,18.43
2022-09-06T23:53:41.436Z,18.22
2022-09-06T23:56:09.917Z,18.29
2022-09-06T23:58:40.209Z,18.17
